KARV/ARV METAR and TAF weather

Enter ICAO airport designator
Station Type Date Time Source
KARV METAR 2018/04/21 11:35 UTC NOAA

KARV 211135Z AUTO 00000KT 10SM CLR M03/M07 A3041 RMK AO2 T10311068


Station Type Date Time Source
KARV Decoded METAR 2018/04/21 11:35 UTC NOAA

Minocqua/Woodruff, Lakeland Airport/Noble F. Lee Memorial Field, WI, United States (KARV) 45-56N 089-44W
Apr 21, 2018 - 07:35 AM EDT / 2018.04.21 1135 UTC
Wind: Calm:0
Visibility: 10 mile(s):0
Sky conditions: clear
Temperature: 26.4 F (-3.1 C)
Dew Point: 19.8 F (-6.8 C)
Relative Humidity: 75%
Pressure (altimeter): 30.41 in. Hg (1029 hPa)
ob: KARV 211135Z AUTO 00000KT 10SM CLR M03/M07 A3041 RMK AO2 T10311068
cycle: 11

Station Type Date Time Source
KARV TAF UTC NOAA

Error!


Example: see airport list